VA77 weather

Hanover Air Park
Mechanicsville, Virginia, United States

Public forecast

Using degrees Fahrenheit for public forecast. Weather courtesy of forecast.io.

Closest aviation weather report (METAR) to Hanover Air Park

Closest report is Hanover County Municipal Airport, 3.0 nm (5.5 km) WNW. Retrieved 2019/12/15 19:54 UTC (47 minutes ago):

KOFP 151954Z AUTO 24011G17KT 10SM CLR 14/01 A3003 RMK AO2 SLP168 T01390006

Closest aviation forecast (TAF) to Hanover Air Park

Closest forecast is Richmond International Airport, 11.7 nm (21.6 km) SSE. Retrieved 2019/12/15 18:42 UTC (2 hours ago):

TAF KRIC 151739Z 1518/1618 26011G18KT P6SM SKC FM152200 25005KT P6SM SKC FM160100 VRB03KT P6SM BKN120 FM161200 10004KT P6SM OVC045 FM161500 21006KT P6SM OVC025